sensor_id;sensor_type;location;lat;lon;timestamp;P1;durP1;ratioP1;P2;durP2;ratioP2
73693;SDS011;61997;53.974;11.670;2022-08-19T00:01:26;9.77;;;8.55;;
73693;SDS011;61997;53.974;11.670;2022-08-19T00:03:54;10.02;;;8.48;;
73693;SDS011;61997;53.974;11.670;2022-08-19T00:06:20;8.90;;;7.88;;
73693;SDS011;61997;53.974;11.670;2022-08-19T00:08:46;10.25;;;8.23;;
73693;SDS011;61997;53.974;11.670;2022-08-19T00:11:11;9.45;;;8.18;;
73693;SDS011;61997;53.974;11.670;2022-08-19T00:13:38;8.52;;;7.63;;
73693;SDS011;61997;53.974;11.670;2022-08-19T00:16:04;11.15;;;8.75;;
73693;SDS011;61997;53.974;11.670;2022-08-19T00:18:31;8.82;;;7.60;;
73693;SDS011;61997;53.974;11.670;2022-08-19T00:20:56;9.38;;;7.75;;
73693;SDS011;61997;53.974;11.670;2022-08-19T00:23:22;8.73;;;7.90;;
73693;SDS011;61997;53.974;11.670;2022-08-19T00:25:47;8.80;;;7.90;;
73693;SDS011;61997;53.974;11.670;2022-08-19T00:28:12;9.60;;;7.88;;
73693;SDS011;61997;53.974;11.670;2022-08-19T00:30:38;7.70;;;6.88;;
73693;SDS011;61997;53.974;11.670;2022-08-19T00:33:03;8.27;;;7.13;;
73693;SDS011;61997;53.974;11.670;2022-08-19T00:35:29;8.77;;;7.53;;
73693;SDS011;61997;53.974;11.670;2022-08-19T00:37:54;10.02;;;7.72;;
73693;SDS011;61997;53.974;11.670;2022-08-19T00:40:20;9.27;;;7.90;;
73693;SDS011;61997;53.974;11.670;2022-08-19T00:42:46;9.75;;;8.25;;
73693;SDS011;61997;53.974;11.670;2022-08-19T00:45:14;9.70;;;7.60;;
73693;SDS011;61997;53.974;11.670;2022-08-19T00:47:43;10.98;;;7.82;;
73693;SDS011;61997;53.974;11.670;2022-08-19T00:50:10;7.90;;;7.10;;
73693;SDS011;61997;53.974;11.670;2022-08-19T00:52:37;9.10;;;7.43;;
73693;SDS011;61997;53.974;11.670;2022-08-19T00:55:07;8.25;;;6.75;;
73693;SDS011;61997;53.974;11.670;2022-08-19T00:57:38;8.77;;;7.60;;
73693;SDS011;61997;53.974;11.670;2022-08-19T01:00:07;8.68;;;7.15;;
73693;SDS011;61997;53.974;11.670;2022-08-19T01:02:36;7.95;;;7.15;;
73693;SDS011;61997;53.974;11.670;2022-08-19T01:05:02;8.20;;;7.13;;
73693;SDS011;61997;53.974;11.670;2022-08-19T01:07:30;8.43;;;6.75;;
73693;SDS011;61997;53.974;11.670;2022-08-19T01:09:55;8.93;;;7.90;;
73693;SDS011;61997;53.974;11.670;2022-08-19T01:12:21;10.85;;;7.60;;
73693;SDS011;61997;53.974;11.670;2022-08-19T01:14:47;7.90;;;7.10;;
73693;SDS011;61997;53.974;11.670;2022-08-19T01:17:13;8.35;;;7.32;;
73693;SDS011;61997;53.974;11.670;2022-08-19T01:19:40;7.65;;;6.80;;
73693;SDS011;61997;53.974;11.670;2022-08-19T01:24:53;8.30;;;6.75;;
73693;SDS011;61997;53.974;11.670;2022-08-19T01:27:18;8.80;;;7.25;;
73693;SDS011;61997;53.974;11.670;2022-08-19T01:29:43;8.43;;;7.40;;
73693;SDS011;61997;53.974;11.670;2022-08-19T01:32:11;7.97;;;7.10;;
73693;SDS011;61997;53.974;11.670;2022-08-19T01:34:39;9.55;;;7.32;;
73693;SDS011;61997;53.974;11.670;2022-08-19T01:37:06;8.70;;;6.47;;
73693;SDS011;61997;53.974;11.670;2022-08-19T01:39:36;9.18;;;7.35;;
73693;SDS011;61997;53.974;11.670;2022-08-19T01:42:02;8.13;;;7.32;;
73693;SDS011;61997;53.974;11.670;2022-08-19T01:44:29;7.90;;;7.10;;
73693;SDS011;61997;53.974;11.670;2022-08-19T01:46:55;8.40;;;6.60;;
73693;SDS011;61997;53.974;11.670;2022-08-19T01:49:21;7.97;;;7.25;;
73693;SDS011;61997;53.974;11.670;2022-08-19T01:51:48;7.93;;;6.88;;
73693;SDS011;61997;53.974;11.670;2022-08-19T01:54:15;7.07;;;6.38;;
73693;SDS011;61997;53.974;11.670;2022-08-19T01:56:41;8.43;;;7.10;;
73693;SDS011;61997;53.974;11.670;2022-08-19T01:59:08;7.50;;;6.70;;
73693;SDS011;61997;53.974;11.670;2022-08-19T02:01:38;7.28;;;6.53;;
73693;SDS011;61997;53.974;11.670;2022-08-19T02:04:03;8.25;;;6.00;;
73693;SDS011;61997;53.974;11.670;2022-08-19T02:06:29;7.57;;;6.78;;
73693;SDS011;61997;53.974;11.670;2022-08-19T02:08:55;7.60;;;6.53;;
73693;SDS011;61997;53.974;11.670;2022-08-19T02:11:25;7.15;;;6.45;;
73693;SDS011;61997;53.974;11.670;2022-08-19T02:13:56;7.28;;;6.47;;
73693;SDS011;61997;53.974;11.670;2022-08-19T02:16:22;6.57;;;5.95;;
73693;SDS011;61997;53.974;11.670;2022-08-19T02:18:47;7.55;;;6.82;;
73693;SDS011;61997;53.974;11.670;2022-08-19T02:21:17;7.43;;;6.70;;
73693;SDS011;61997;53.974;11.670;2022-08-19T02:23:43;8.23;;;6.28;;
73693;SDS011;61997;53.974;11.670;2022-08-19T02:26:09;7.13;;;6.40;;
73693;SDS011;61997;53.974;11.670;2022-08-19T02:28:37;6.70;;;6.10;;
73693;SDS011;61997;53.974;11.670;2022-08-19T02:31:03;7.25;;;5.80;;
73693;SDS011;61997;53.974;11.670;2022-08-19T02:33:29;7.07;;;6.20;;
73693;SDS011;61997;53.974;11.670;2022-08-19T02:35:54;6.88;;;6.18;;
73693;SDS011;61997;53.974;11.670;2022-08-19T02:38:20;6.75;;;6.05;;
73693;SDS011;61997;53.974;11.670;2022-08-19T02:40:52;6.28;;;5.68;;
73693;SDS011;61997;53.974;11.670;2022-08-19T02:43:19;7.75;;;6.30;;
73693;SDS011;61997;53.974;11.670;2022-08-19T02:45:45;6.95;;;6.22;;
73693;SDS011;61997;53.974;11.670;2022-08-19T02:48:10;7.93;;;6.53;;
73693;SDS011;61997;53.974;11.670;2022-08-19T02:50:39;7.10;;;6.15;;
73693;SDS011;61997;53.974;11.670;2022-08-19T02:53:05;7.80;;;6.68;;
73693;SDS011;61997;53.974;11.670;2022-08-19T02:55:32;7.03;;;6.22;;
73693;SDS011;61997;53.974;11.670;2022-08-19T02:57:58;7.30;;;6.53;;
73693;SDS011;61997;53.974;11.670;2022-08-19T03:00:24;5.97;;;5.38;;
73693;SDS011;61997;53.974;11.670;2022-08-19T03:02:51;7.35;;;6.47;;
73693;SDS011;61997;53.974;11.670;2022-08-19T03:05:17;6.32;;;5.47;;
73693;SDS011;61997;53.974;11.670;2022-08-19T03:07:42;7.57;;;5.78;;
73693;SDS011;61997;53.974;11.670;2022-08-19T03:10:07;6.55;;;5.82;;
73693;SDS011;61997;53.974;11.670;2022-08-19T03:12:37;7.18;;;6.47;;
73693;SDS011;61997;53.974;11.670;2022-08-19T03:15:04;6.85;;;5.65;;
73693;SDS011;61997;53.974;11.670;2022-08-19T03:17:31;7.35;;;6.07;;
73693;SDS011;61997;53.974;11.670;2022-08-19T03:19:56;7.07;;;6.18;;
73693;SDS011;61997;53.974;11.670;2022-08-19T03:22:21;6.53;;;5.68;;
73693;SDS011;61997;53.974;11.670;2022-08-19T03:24:47;7.10;;;6.35;;
73693;SDS011;61997;53.974;11.670;2022-08-19T03:27:13;6.63;;;5.80;;
73693;SDS011;61997;53.974;11.670;2022-08-19T03:29:39;6.38;;;5.68;;
73693;SDS011;61997;53.974;11.670;2022-08-19T03:32:05;6.93;;;6.18;;
73693;SDS011;61997;53.974;11.670;2022-08-19T03:34:31;7.70;;;6.93;;
73693;SDS011;61997;53.974;11.670;2022-08-19T03:37:01;6.50;;;5.90;;
73693;SDS011;61997;53.974;11.670;2022-08-19T03:39:35;7.18;;;6.10;;
73693;SDS011;61997;53.974;11.670;2022-08-19T03:42:01;6.47;;;5.57;;
73693;SDS011;61997;53.974;11.670;2022-08-19T03:44:27;6.43;;;5.55;;
73693;SDS011;61997;53.974;11.670;2022-08-19T03:46:55;6.15;;;5.43;;
73693;SDS011;61997;53.974;11.670;2022-08-19T03:49:22;6.40;;;5.72;;
73693;SDS011;61997;53.974;11.670;2022-08-19T03:51:48;6.72;;;6.03;;
73693;SDS011;61997;53.974;11.670;2022-08-19T03:54:16;6.28;;;5.68;;
73693;SDS011;61997;53.974;11.670;2022-08-19T03:56:45;7.68;;;5.90;;
73693;SDS011;61997;53.974;11.670;2022-08-19T03:59:14;6.80;;;5.53;;
73693;SDS011;61997;53.974;11.670;2022-08-19T04:01:42;6.93;;;6.22;;
73693;SDS011;61997;53.974;11.670;2022-08-19T04:04:07;6.97;;;6.22;;
73693;SDS011;61997;53.974;11.670;2022-08-19T04:06:33;6.97;;;6.28;;
73693;SDS011;61997;53.974;11.670;2022-08-19T04:09:01;6.55;;;5.80;;
73693;SDS011;61997;53.974;11.670;2022-08-19T04:11:30;7.63;;;6.22;;
73693;SDS011;61997;53.974;11.670;2022-08-19T04:13:59;6.25;;;5.65;;
73693;SDS011;61997;53.974;11.670;2022-08-19T04:16:25;6.32;;;5.40;;
73693;SDS011;61997;53.974;11.670;2022-08-19T04:18:55;6.80;;;6.10;;
73693;SDS011;61997;53.974;11.670;2022-08-19T04:21:23;6.05;;;5.45;;
73693;SDS011;61997;53.974;11.670;2022-08-19T04:23:50;6.45;;;5.78;;
73693;SDS011;61997;53.974;11.670;2022-08-19T04:26:16;8.07;;;6.45;;
73693;SDS011;61997;53.974;11.670;2022-08-19T04:28:44;6.28;;;5.68;;
73693;SDS011;61997;53.974;11.670;2022-08-19T04:31:17;6.68;;;5.45;;
73693;SDS011;61997;53.974;11.670;2022-08-19T04:33:44;6.78;;;5.70;;
73693;SDS011;61997;53.974;11.670;2022-08-19T04:36:19;7.57;;;5.53;;
73693;SDS011;61997;53.974;11.670;2022-08-19T04:38:47;6.97;;;6.28;;
73693;SDS011;61997;53.974;11.670;2022-08-19T04:41:13;6.90;;;6.05;;
73693;SDS011;61997;53.974;11.670;2022-08-19T04:43:57;7.93;;;6.53;;
73693;SDS011;61997;53.974;11.670;2022-08-19T04:46:22;6.47;;;5.78;;
73693;SDS011;61997;53.974;11.670;2022-08-19T04:48:48;6.25;;;5.65;;
73693;SDS011;61997;53.974;11.670;2022-08-19T04:51:13;6.05;;;5.45;;
73693;SDS011;61997;53.974;11.670;2022-08-19T04:53:40;6.43;;;5.82;;
73693;SDS011;61997;53.974;11.670;2022-08-19T04:56:13;6.18;;;5.60;;
73693;SDS011;61997;53.974;11.670;2022-08-19T04:58:41;7.10;;;5.28;;
73693;SDS011;61997;53.974;11.670;2022-08-19T05:01:07;7.65;;;5.93;;
73693;SDS011;61997;53.974;11.670;2022-08-19T05:03:43;6.00;;;5.40;;
73693;SDS011;61997;53.974;11.670;2022-08-19T05:06:10;7.07;;;5.78;;
73693;SDS011;61997;53.974;11.670;2022-08-19T05:08:38;6.78;;;6.07;;
73693;SDS011;61997;53.974;11.670;2022-08-19T05:11:31;6.75;;;6.05;;
73693;SDS011;61997;53.974;11.670;2022-08-19T05:13:55;5.97;;;5.47;;
73693;SDS011;61997;53.974;11.670;2022-08-19T05:16:22;6.38;;;5.50;;
73693;SDS011;61997;53.974;11.670;2022-08-19T05:18:49;6.05;;;5.05;;
73693;SDS011;61997;53.974;11.670;2022-08-19T05:21:34;7.15;;;5.97;;
73693;SDS011;61997;53.974;11.670;2022-08-19T05:24:18;6.05;;;5.32;;
73693;SDS011;61997;53.974;11.670;2022-08-19T05:26:46;6.10;;;5.50;;
73693;SDS011;61997;53.974;11.670;2022-08-19T05:31:40;6.47;;;5.78;;
73693;SDS011;61997;53.974;11.670;2022-08-19T05:34:06;6.47;;;5.78;;
73693;SDS011;61997;53.974;11.670;2022-08-19T05:36:38;5.90;;;5.25;;
73693;SDS011;61997;53.974;11.670;2022-08-19T05:39:10;7.22;;;6.10;;
73693;SDS011;61997;53.974;11.670;2022-08-19T05:41:45;6.30;;;5.43;;
73693;SDS011;61997;53.974;11.670;2022-08-19T05:44:13;6.88;;;5.93;;
73693;SDS011;61997;53.974;11.670;2022-08-19T05:46:40;6.10;;;5.50;;
73693;SDS011;61997;53.974;11.670;2022-08-19T05:49:06;6.50;;;5.32;;
73693;SDS011;61997;53.974;11.670;2022-08-19T05:51:33;6.15;;;5.25;;
73693;SDS011;61997;53.974;11.670;2022-08-19T05:54:00;7.75;;;5.63;;
73693;SDS011;61997;53.974;11.670;2022-08-19T05:56:26;7.18;;;6.20;;
73693;SDS011;61997;53.974;11.670;2022-08-19T05:58:52;6.03;;;5.32;;
73693;SDS011;61997;53.974;11.670;2022-08-19T06:01:19;7.05;;;5.80;;
73693;SDS011;61997;53.974;11.670;2022-08-19T06:03:45;6.32;;;5.65;;
73693;SDS011;61997;53.974;11.670;2022-08-19T06:06:12;6.30;;;5.50;;
73693;SDS011;61997;53.974;11.670;2022-08-19T06:08:39;6.25;;;5.63;;
73693;SDS011;61997;53.974;11.670;2022-08-19T06:11:12;6.55;;;5.50;;
73693;SDS011;61997;53.974;11.670;2022-08-19T06:14:02;6.25;;;5.38;;
73693;SDS011;61997;53.974;11.670;2022-08-19T06:16:32;7.60;;;5.90;;
73693;SDS011;61997;53.974;11.670;2022-08-19T06:19:00;7.05;;;5.53;;
73693;SDS011;61997;53.974;11.670;2022-08-19T06:21:28;6.80;;;5.28;;
73693;SDS011;61997;53.974;11.670;2022-08-19T06:23:54;7.75;;;5.50;;
73693;SDS011;61997;53.974;11.670;2022-08-19T06:26:21;7.78;;;5.78;;
73693;SDS011;61997;53.974;11.670;2022-08-19T06:28:47;6.45;;;5.70;;
73693;SDS011;61997;53.974;11.670;2022-08-19T06:31:13;7.28;;;6.07;;
73693;SDS011;61997;53.974;11.670;2022-08-19T06:33:41;6.63;;;5.65;;
73693;SDS011;61997;53.974;11.670;2022-08-19T06:36:07;5.82;;;5.20;;
73693;SDS011;61997;53.974;11.670;2022-08-19T06:38:40;6.63;;;5.70;;
73693;SDS011;61997;53.974;11.670;2022-08-19T06:41:06;6.85;;;5.20;;
73693;SDS011;61997;53.974;11.670;2022-08-19T06:43:31;5.55;;;4.90;;
73693;SDS011;61997;53.974;11.670;2022-08-19T06:45:56;6.07;;;5.47;;
73693;SDS011;61997;53.974;11.670;2022-08-19T06:48:22;5.68;;;4.95;;
73693;SDS011;61997;53.974;11.670;2022-08-19T06:50:47;6.50;;;5.63;;
73693;SDS011;61997;53.974;11.670;2022-08-19T06:53:14;6.43;;;5.82;;
73693;SDS011;61997;53.974;11.670;2022-08-19T06:55:40;8.70;;;5.22;;
73693;SDS011;61997;53.974;11.670;2022-08-19T06:58:06;7.07;;;5.93;;
73693;SDS011;61997;53.974;11.670;2022-08-19T07:00:32;7.28;;;6.13;;
73693;SDS011;61997;53.974;11.670;2022-08-19T07:02:57;8.00;;;5.75;;
73693;SDS011;61997;53.974;11.670;2022-08-19T07:05:23;7.28;;;6.40;;
73693;SDS011;61997;53.974;11.670;2022-08-19T07:07:49;7.32;;;5.78;;
73693;SDS011;61997;53.974;11.670;2022-08-19T07:10:14;7.45;;;5.93;;
73693;SDS011;61997;53.974;11.670;2022-08-19T07:12:40;9.48;;;6.05;;
73693;SDS011;61997;53.974;11.670;2022-08-19T07:15:06;8.55;;;6.07;;
73693;SDS011;61997;53.974;11.670;2022-08-19T07:17:33;8.63;;;6.00;;
73693;SDS011;61997;53.974;11.670;2022-08-19T07:20:02;9.07;;;6.03;;
73693;SDS011;61997;53.974;11.670;2022-08-19T07:22:28;7.63;;;6.00;;
73693;SDS011;61997;53.974;11.670;2022-08-19T07:24:54;7.82;;;5.93;;
73693;SDS011;61997;53.974;11.670;2022-08-19T07:27:19;10.27;;;6.40;;
73693;SDS011;61997;53.974;11.670;2022-08-19T07:29:44;7.63;;;6.47;;
73693;SDS011;61997;53.974;11.670;2022-08-19T07:32:10;8.57;;;5.93;;
73693;SDS011;61997;53.974;11.670;2022-08-19T07:34:36;8.13;;;6.25;;
73693;SDS011;61997;53.974;11.670;2022-08-19T07:37:05;7.68;;;6.43;;
73693;SDS011;61997;53.974;11.670;2022-08-19T07:39:32;7.57;;;6.57;;
73693;SDS011;61997;53.974;11.670;2022-08-19T07:42:00;8.45;;;6.53;;
73693;SDS011;61997;53.974;11.670;2022-08-19T07:44:27;8.27;;;6.53;;
73693;SDS011;61997;53.974;11.670;2022-08-19T07:46:54;11.63;;;7.32;;
73693;SDS011;61997;53.974;11.670;2022-08-19T07:49:20;8.70;;;6.85;;
73693;SDS011;61997;53.974;11.670;2022-08-19T07:51:48;8.95;;;6.63;;
73693;SDS011;61997;53.974;11.670;2022-08-19T07:54:39;8.50;;;6.55;;
73693;SDS011;61997;53.974;11.670;2022-08-19T07:57:06;9.13;;;6.55;;
73693;SDS011;61997;53.974;11.670;2022-08-19T07:59:32;9.63;;;7.10;;
73693;SDS011;61997;53.974;11.670;2022-08-19T08:01:58;8.55;;;6.30;;
73693;SDS011;61997;53.974;11.670;2022-08-19T08:04:25;9.15;;;6.13;;
73693;SDS011;61997;53.974;11.670;2022-08-19T08:07:10;8.80;;;6.22;;
73693;SDS011;61997;53.974;11.670;2022-08-19T08:09:54;7.35;;;6.15;;
73693;SDS011;61997;53.974;11.670;2022-08-19T08:12:26;10.52;;;6.78;;
73693;SDS011;61997;53.974;11.670;2022-08-19T08:14:54;8.45;;;6.93;;
73693;SDS011;61997;53.974;11.670;2022-08-19T08:17:23;10.45;;;7.32;;
73693;SDS011;61997;53.974;11.670;2022-08-19T08:22:18;8.98;;;7.20;;
73693;SDS011;61997;53.974;11.670;2022-08-19T08:25:04;8.98;;;6.38;;
73693;SDS011;61997;53.974;11.670;2022-08-19T08:27:34;12.85;;;7.10;;
73693;SDS011;61997;53.974;11.670;2022-08-19T08:30:01;10.63;;;6.72;;
73693;SDS011;61997;53.974;11.670;2022-08-19T08:32:26;9.50;;;7.22;;
73693;SDS011;61997;53.974;11.670;2022-08-19T08:34:52;9.00;;;6.63;;
73693;SDS011;61997;53.974;11.670;2022-08-19T08:37:17;9.82;;;7.38;;
73693;SDS011;61997;53.974;11.670;2022-08-19T08:39:42;10.07;;;7.53;;
73693;SDS011;61997;53.974;11.670;2022-08-19T08:42:13;11.13;;;8.07;;
73693;SDS011;61997;53.974;11.670;2022-08-19T08:47:23;10.45;;;8.15;;
73693;SDS011;61997;53.974;11.670;2022-08-19T08:49:51;10.57;;;8.10;;
73693;SDS011;61997;53.974;11.670;2022-08-19T08:52:22;12.85;;;8.90;;
73693;SDS011;61997;53.974;11.670;2022-08-19T08:54:50;10.18;;;8.55;;
73693;SDS011;61997;53.974;11.670;2022-08-19T08:57:49;11.75;;;8.77;;
73693;SDS011;61997;53.974;11.670;2022-08-19T09:00:06;11.73;;;8.32;;
73693;SDS011;61997;53.974;11.670;2022-08-19T09:02:34;15.60;;;8.93;;
73693;SDS011;61997;53.974;11.670;2022-08-19T09:04:59;11.60;;;8.25;;
73693;SDS011;61997;53.974;11.670;2022-08-19T09:09:56;11.93;;;9.13;;
73693;SDS011;61997;53.974;11.670;2022-08-19T09:12:36;9.00;;;7.55;;
73693;SDS011;61997;53.974;11.670;2022-08-19T09:15:07;10.02;;;7.72;;
73693;SDS011;61997;53.974;11.670;2022-08-19T09:17:35;11.80;;;8.10;;
73693;SDS011;61997;53.974;11.670;2022-08-19T09:22:35;10.40;;;8.32;;
73693;SDS011;61997;53.974;11.670;2022-08-19T09:25:01;9.70;;;8.43;;
73693;SDS011;61997;53.974;11.670;2022-08-19T09:27:27;10.18;;;7.88;;
73693;SDS011;61997;53.974;11.670;2022-08-19T09:29:53;8.82;;;7.80;;
73693;SDS011;61997;53.974;11.670;2022-08-19T09:32:19;11.07;;;8.57;;
73693;SDS011;61997;53.974;11.670;2022-08-19T09:34:45;9.82;;;7.82;;
73693;SDS011;61997;53.974;11.670;2022-08-19T09:37:11;8.18;;;6.72;;
73693;SDS011;61997;53.974;11.670;2022-08-19T09:39:37;11.43;;;7.55;;
73693;SDS011;61997;53.974;11.670;2022-08-19T09:42:03;10.30;;;7.55;;
73693;SDS011;61997;53.974;11.670;2022-08-19T09:44:29;9.00;;;7.45;;
73693;SDS011;61997;53.974;11.670;2022-08-19T09:46:55;10.50;;;7.93;;
73693;SDS011;61997;53.974;11.670;2022-08-19T09:49:21;9.50;;;7.68;;
73693;SDS011;61997;53.974;11.670;2022-08-19T09:51:51;9.02;;;7.18;;
73693;SDS011;61997;53.974;11.670;2022-08-19T09:54:18;9.68;;;8.27;;
73693;SDS011;61997;53.974;11.670;2022-08-19T09:56:44;10.40;;;7.93;;
73693;SDS011;61997;53.974;11.670;2022-08-19T09:59:09;10.38;;;8.38;;
73693;SDS011;61997;53.974;11.670;2022-08-19T10:01:36;13.13;;;8.00;;
73693;SDS011;61997;53.974;11.670;2022-08-19T10:04:02;16.33;;;8.10;;
73693;SDS011;61997;53.974;11.670;2022-08-19T10:06:33;13.50;;;7.70;;
73693;SDS011;61997;53.974;11.670;2022-08-19T10:08:59;17.60;;;8.80;;
73693;SDS011;61997;53.974;11.670;2022-08-19T10:11:24;17.83;;;8.75;;
73693;SDS011;61997;53.974;11.670;2022-08-19T10:13:51;17.30;;;8.98;;
73693;SDS011;61997;53.974;11.670;2022-08-19T10:16:18;14.55;;;8.15;;
73693;SDS011;61997;53.974;11.670;2022-08-19T10:18:46;14.48;;;8.18;;
73693;SDS011;61997;53.974;11.670;2022-08-19T10:21:16;14.98;;;7.93;;
73693;SDS011;61997;53.974;11.670;2022-08-19T10:23:45;13.90;;;8.07;;
73693;SDS011;61997;53.974;11.670;2022-08-19T10:26:13;10.27;;;7.20;;
73693;SDS011;61997;53.974;11.670;2022-08-19T10:28:46;10.23;;;7.00;;
73693;SDS011;61997;53.974;11.670;2022-08-19T10:31:13;11.82;;;7.25;;
73693;SDS011;61997;53.974;11.670;2022-08-19T10:36:14;11.07;;;7.43;;
73693;SDS011;61997;53.974;11.670;2022-08-19T10:38:45;13.30;;;7.20;;
73693;SDS011;61997;53.974;11.670;2022-08-19T10:41:15;13.93;;;7.60;;
73693;SDS011;61997;53.974;11.670;2022-08-19T10:43:42;8.63;;;6.45;;
73693;SDS011;61997;53.974;11.670;2022-08-19T10:46:10;11.40;;;7.88;;
73693;SDS011;61997;53.974;11.670;2022-08-19T10:48:37;10.48;;;7.55;;
73693;SDS011;61997;53.974;11.670;2022-08-19T10:51:03;13.02;;;7.25;;
73693;SDS011;61997;53.974;11.670;2022-08-19T10:53:47;11.77;;;7.68;;
73693;SDS011;61997;53.974;11.670;2022-08-19T10:56:12;11.35;;;7.45;;
73693;SDS011;61997;53.974;11.670;2022-08-19T10:58:57;13.35;;;7.93;;
73693;SDS011;61997;53.974;11.670;2022-08-19T11:01:23;12.95;;;7.45;;
73693;SDS011;61997;53.974;11.670;2022-08-19T11:03:49;8.43;;;6.97;;
73693;SDS011;61997;53.974;11.670;2022-08-19T11:06:15;8.32;;;7.05;;
73693;SDS011;61997;53.974;11.670;2022-08-19T11:08:41;9.45;;;6.75;;
73693;SDS011;61997;53.974;11.670;2022-08-19T11:11:08;10.43;;;7.18;;
73693;SDS011;61997;53.974;11.670;2022-08-19T11:13:35;8.57;;;7.15;;
73693;SDS011;61997;53.974;11.670;2022-08-19T11:16:12;12.73;;;7.93;;
73693;SDS011;61997;53.974;11.670;2022-08-19T11:18:44;12.85;;;7.82;;
73693;SDS011;61997;53.974;11.670;2022-08-19T11:23:39;10.50;;;7.20;;
73693;SDS011;61997;53.974;11.670;2022-08-19T11:26:05;8.85;;;7.15;;
73693;SDS011;61997;53.974;11.670;2022-08-19T11:28:31;10.90;;;7.80;;
73693;SDS011;61997;53.974;11.670;2022-08-19T11:30:56;8.48;;;7.00;;
73693;SDS011;61997;53.974;11.670;2022-08-19T11:33:22;9.93;;;6.93;;
73693;SDS011;61997;53.974;11.670;2022-08-19T11:35:47;10.00;;;7.53;;
73693;SDS011;61997;53.974;11.670;2022-08-19T11:38:14;10.48;;;7.70;;
73693;SDS011;61997;53.974;11.670;2022-08-19T11:40:39;9.13;;;7.25;;
73693;SDS011;61997;53.974;11.670;2022-08-19T11:43:07;8.98;;;7.47;;
73693;SDS011;61997;53.974;11.670;2022-08-19T11:45:33;10.23;;;7.80;;
73693;SDS011;61997;53.974;11.670;2022-08-19T11:47:59;8.75;;;7.63;;
73693;SDS011;61997;53.974;11.670;2022-08-19T11:50:24;9.30;;;7.65;;
73693;SDS011;61997;53.974;11.670;2022-08-19T11:52:50;11.13;;;7.80;;
73693;SDS011;61997;53.974;11.670;2022-08-19T11:55:19;11.50;;;8.60;;
73693;SDS011;61997;53.974;11.670;2022-08-19T11:57:44;9.38;;;7.50;;
73693;SDS011;61997;53.974;11.670;2022-08-19T12:00:11;10.90;;;8.13;;
73693;SDS011;61997;53.974;11.670;2022-08-19T12:02:38;10.35;;;8.15;;
73693;SDS011;61997;53.974;11.670;2022-08-19T12:05:04;11.35;;;8.63;;
73693;SDS011;61997;53.974;11.670;2022-08-19T12:07:30;11.50;;;8.90;;
73693;SDS011;61997;53.974;11.670;2022-08-19T12:09:58;12.65;;;9.00;;
73693;SDS011;61997;53.974;11.670;2022-08-19T12:12:24;15.05;;;9.93;;
73693;SDS011;61997;53.974;11.670;2022-08-19T12:14:51;11.15;;;9.18;;
73693;SDS011;61997;53.974;11.670;2022-08-19T12:17:22;11.60;;;9.13;;
73693;SDS011;61997;53.974;11.670;2022-08-19T12:19:48;12.27;;;9.68;;
73693;SDS011;61997;53.974;11.670;2022-08-19T12:22:13;12.35;;;9.07;;
73693;SDS011;61997;53.974;11.670;2022-08-19T12:24:39;12.18;;;9.15;;
73693;SDS011;61997;53.974;11.670;2022-08-19T12:27:04;11.80;;;9.07;;
73693;SDS011;61997;53.974;11.670;2022-08-19T12:29:29;11.60;;;8.93;;
73693;SDS011;61997;53.974;11.670;2022-08-19T12:31:56;12.32;;;9.68;;
73693;SDS011;61997;53.974;11.670;2022-08-19T12:34:30;11.82;;;9.80;;
73693;SDS011;61997;53.974;11.670;2022-08-19T12:36:57;11.60;;;9.68;;
73693;SDS011;61997;53.974;11.670;2022-08-19T12:39:23;13.18;;;9.73;;
73693;SDS011;61997;53.974;11.670;2022-08-19T12:41:49;13.45;;;10.68;;
73693;SDS011;61997;53.974;11.670;2022-08-19T12:44:15;16.40;;;11.50;;
73693;SDS011;61997;53.974;11.670;2022-08-19T12:46:40;14.30;;;11.95;;
73693;SDS011;61997;53.974;11.670;2022-08-19T12:49:06;15.98;;;11.63;;
73693;SDS011;61997;53.974;11.670;2022-08-19T12:51:31;15.52;;;12.43;;
73693;SDS011;61997;53.974;11.670;2022-08-19T12:53:57;17.27;;;12.65;;
73693;SDS011;61997;53.974;11.670;2022-08-19T12:56:22;17.33;;;13.73;;
73693;SDS011;61997;53.974;11.670;2022-08-19T12:58:47;17.85;;;12.77;;
73693;SDS011;61997;53.974;11.670;2022-08-19T13:01:15;17.70;;;13.60;;
73693;SDS011;61997;53.974;11.670;2022-08-19T13:03:41;19.52;;;14.30;;
73693;SDS011;61997;53.974;11.670;2022-08-19T13:06:08;18.00;;;13.63;;
73693;SDS011;61997;53.974;11.670;2022-08-19T13:08:34;18.20;;;14.27;;
73693;SDS011;61997;53.974;11.670;2022-08-19T13:11:14;17.50;;;13.27;;
73693;SDS011;61997;53.974;11.670;2022-08-19T13:13:42;18.25;;;14.10;;
73693;SDS011;61997;53.974;11.670;2022-08-19T13:16:09;19.67;;;13.75;;
73693;SDS011;61997;53.974;11.670;2022-08-19T13:18:36;17.95;;;13.75;;
73693;SDS011;61997;53.974;11.670;2022-08-19T13:21:05;18.58;;;14.38;;
73693;SDS011;61997;53.974;11.670;2022-08-19T13:23:33;18.73;;;14.10;;
73693;SDS011;61997;53.974;11.670;2022-08-19T13:25:59;19.00;;;13.73;;
73693;SDS011;61997;53.974;11.670;2022-08-19T13:28:27;19.48;;;14.27;;
73693;SDS011;61997;53.974;11.670;2022-08-19T13:31:14;20.92;;;14.82;;
73693;SDS011;61997;53.974;11.670;2022-08-19T13:36:24;17.20;;;13.30;;
73693;SDS011;61997;53.974;11.670;2022-08-19T13:38:49;18.77;;;13.73;;
73693;SDS011;61997;53.974;11.670;2022-08-19T13:41:14;16.30;;;13.48;;
73693;SDS011;61997;53.974;11.670;2022-08-19T13:43:40;18.33;;;14.18;;
73693;SDS011;61997;53.974;11.670;2022-08-19T13:46:08;15.40;;;13.50;;
73693;SDS011;61997;53.974;11.670;2022-08-19T13:48:35;17.25;;;14.15;;
73693;SDS011;61997;53.974;11.670;2022-08-19T13:51:00;19.48;;;15.02;;
73693;SDS011;61997;53.974;11.670;2022-08-19T13:53:26;17.67;;;15.00;;
73693;SDS011;61997;53.974;11.670;2022-08-19T13:55:51;18.02;;;14.40;;
73693;SDS011;61997;53.974;11.670;2022-08-19T13:58:18;18.10;;;14.23;;
73693;SDS011;61997;53.974;11.670;2022-08-19T14:00:44;18.65;;;14.90;;
73693;SDS011;61997;53.974;11.670;2022-08-19T14:03:11;17.73;;;14.07;;
73693;SDS011;61997;53.974;11.670;2022-08-19T14:05:36;16.80;;;13.82;;
73693;SDS011;61997;53.974;11.670;2022-08-19T14:08:02;17.17;;;12.43;;
73693;SDS011;61997;53.974;11.670;2022-08-19T14:10:28;17.08;;;14.02;;
73693;SDS011;61997;53.974;11.670;2022-08-19T14:12:55;17.98;;;13.68;;
73693;SDS011;61997;53.974;11.670;2022-08-19T14:15:23;16.98;;;13.48;;
73693;SDS011;61997;53.974;11.670;2022-08-19T14:17:49;18.40;;;14.57;;
73693;SDS011;61997;53.974;11.670;2022-08-19T14:20:15;19.40;;;15.27;;
73693;SDS011;61997;53.974;11.670;2022-08-19T14:22:41;17.77;;;13.73;;
73693;SDS011;61997;53.974;11.670;2022-08-19T14:25:08;18.33;;;14.40;;
73693;SDS011;61997;53.974;11.670;2022-08-19T14:27:36;17.35;;;13.05;;
73693;SDS011;61997;53.974;11.670;2022-08-19T14:30:04;16.38;;;14.48;;
73693;SDS011;61997;53.974;11.670;2022-08-19T14:32:31;17.38;;;13.25;;
73693;SDS011;61997;53.974;11.670;2022-08-19T14:34:57;17.73;;;14.15;;
73693;SDS011;61997;53.974;11.670;2022-08-19T14:37:23;17.40;;;14.00;;
73693;SDS011;61997;53.974;11.670;2022-08-19T14:39:48;15.32;;;12.77;;
73693;SDS011;61997;53.974;11.670;2022-08-19T14:42:14;15.77;;;12.90;;
73693;SDS011;61997;53.974;11.670;2022-08-19T14:44:39;15.93;;;12.05;;
73693;SDS011;61997;53.974;11.670;2022-08-19T14:47:05;16.95;;;13.40;;
73693;SDS011;61997;53.974;11.670;2022-08-19T14:49:32;16.27;;;12.85;;
73693;SDS011;61997;53.974;11.670;2022-08-19T14:51:58;14.65;;;11.93;;
73693;SDS011;61997;53.974;11.670;2022-08-19T14:54:23;15.30;;;12.02;;